Paso Robles, CA (93446)

3:37 AM PDT on May 27, 2015 (GMT -0700)
Montebello Oaks | | Change Station
CLOSE
Current Station
Personal Weather Station
Location: Paso Robles, CA
Elevation: 869 ft
Nearby Weather Stations

Elev 869 ft 35.64 °N, 120.67 °W | Updated 1 minute ago

Partly Cloudy
Partly Cloudy
52.4 °F
Feels Like 52.4 °F
N
0.0
Wind Variable Wind from NE
Gusts 3.0 mph

Today
High -- | Low -- °F
--% Chance of Precip.
Yesterday
High -- | Low -- °F
Precip. -- in
5:50 AM 8:09 PM
Waxing Gibbous, 66% visible
Pressure 30.00 in
Visibility 10.0 miles
Clouds Mostly Cloudy 700 ft
Dew Point 49 °F
Humidity 89%
Rainfall 0.00 in
Snow Depth Not available.
UV 0 out of 12
Pollen 6.10 out of 12
Air Quality Not available.
Flu Activity Sporadic
SPECI KPRB 271009Z AUTO 30008KT 10SM BKN007 11/09 A3000 RMK AO2 T01110089 TSNO

More Conditions Fewer Conditions

Pressure 30.00 in
Visibility 10.0 miles
Clouds Mostly Cloudy 700 ft
Dew Point 49 °F
Humidity 89%
Rainfall 0.00 in
Snow Depth Not available.
UV 0 out of 12
Pollen 6.10 out of 12
Air Quality Not available.
Flu Activity Sporadic
SPECI KPRB 271009Z AUTO 30008KT 10SM BKN007 11/09 A3000 RMK AO2 T01110089 TSNO

More Conditions Fewer Conditions

10-Day Weather Forecast

Almanac

Astronomy

May. 27, 2015 Rise Set
Actual Time
Civil Twilight
Nautical Twilight
Astronomical Twilight
Moon
Length of Visible Light
Length of Day
Tomorrow will be .
, % of the Moon is Illuminated

Today's Extremes

State Highs State Lows

Community

WunderPhotos

Upload Photos

1,824,635 photos uploaded!

WunderBlogs® & News

Nearby

Air Quality

  Air Quality AQ Index Pollutant
Not available.

Snow Depth

Station Depth Elevation

Earthquake Activity

City Distance Mag. Time & Date
Minimum magnitude displayed is 2.5.

Coastal Water Temperatures

Place Temperature

Stations

Nearby Weather Stations

Station Location Temp. Windchill Dew Point Humidity Wind Precip. Elev Updated Type